Terminal Aerodrome Forecast
Issued by NWS Cleveland, OH

Home | Current Version | Previous Version | Graphics & Text | Print | Product List | Glossary On
Versions: 1 2 3 4 5 6 7 8 9 10 11 12 13 14 15 16 17 18 19 20 21 22 23 24 25 26 27 28
000
FTUS41 KCLE 272100 AAA
TAFCLE
TAF AMD
KCLE 272127Z 2721/2824 22012KT P6SM OVC035
     FM280000 23012G22KT 6SM -SHRA BR OVC020
      TEMPO 2802/2804 4SM -SHRA BR OVC012
     FM280400 24010KT 4SM -SHRA BKN009 OVC015
     FM280800 30010KT 5SM -SHRA BR SCT007 OVC012
     FM281300 31010KT 6SM BR VCSH OVC018
     FM281800 33010KT P6SM SCT012 OVC040=

USA.gov is the U.S. government's official web portal to all federal, state and local government web resources and services.